createdAt,value
2023-06-29T00:00:14.383Z,98713.00
2023-06-29T00:03:03.066Z,98711.00
2023-06-29T00:05:50.907Z,98712.00
2023-06-29T00:08:38.469Z,98718.00
2023-06-29T00:11:26.419Z,98722.00
2023-06-29T00:14:13.933Z,98717.00
2023-06-29T00:17:01.400Z,98716.00
2023-06-29T00:19:50.338Z,98724.00
2023-06-29T00:22:41.669Z,98711.00
2023-06-29T00:25:29.456Z,98715.00
2023-06-29T00:28:16.999Z,98711.00
2023-06-29T00:31:04.627Z,98717.00
2023-06-29T00:33:52.530Z,98710.00
2023-06-29T00:36:41.924Z,98713.00
2023-06-29T00:39:29.528Z,98708.00
2023-06-29T00:42:17.183Z,98705.00
2023-06-29T00:45:06.098Z,98710.00
2023-06-29T00:47:53.808Z,98711.00
2023-06-29T00:50:42.724Z,98714.00
2023-06-29T00:53:30.527Z,98713.00
2023-06-29T00:56:18.239Z,98709.00
2023-06-29T00:59:05.760Z,98717.00
2023-06-29T01:01:56.258Z,98716.00
2023-06-29T01:04:47.288Z,98716.00
2023-06-29T01:07:58.564Z,98709.00
2023-06-29T01:10:50.153Z,98703.00
2023-06-29T01:13:42.051Z,98699.00
2023-06-29T01:16:34.593Z,98703.00
2023-06-29T01:19:30.011Z,98699.00
2023-06-29T01:22:36.972Z,98707.00
2023-06-29T01:25:27.672Z,98706.00
2023-06-29T01:28:15.776Z,98708.00
2023-06-29T01:31:04.081Z,98709.00
2023-06-29T01:33:51.609Z,98706.00
2023-06-29T01:36:45.729Z,98703.00
2023-06-29T01:39:48.382Z,98699.00
2023-06-29T01:42:39.390Z,98699.00
2023-06-29T01:45:28.730Z,98690.00
2023-06-29T01:48:18.534Z,98703.00
2023-06-29T01:51:08.412Z,98693.00
2023-06-29T01:53:55.987Z,98691.00
2023-06-29T01:56:43.524Z,98694.00
2023-06-29T01:59:31.334Z,98699.00
2023-06-29T02:02:18.831Z,98694.00
2023-06-29T02:05:07.478Z,98701.00
2023-06-29T02:07:55.014Z,98696.00
2023-06-29T02:10:42.587Z,98683.00
2023-06-29T02:13:30.034Z,98688.00
2023-06-29T02:16:17.718Z,98689.00
2023-06-29T02:19:06.317Z,98691.00
2023-06-29T02:21:53.803Z,98690.00
2023-06-29T02:24:41.289Z,98694.00
2023-06-29T02:27:28.936Z,98699.00
2023-06-29T02:30:16.533Z,98693.00
2023-06-29T02:33:04.095Z,98696.00
2023-06-29T02:35:51.794Z,98690.00
2023-06-29T02:38:39.870Z,98689.00
2023-06-29T02:41:27.408Z,98692.00
2023-06-29T02:44:14.978Z,98694.00
2023-06-29T02:47:02.452Z,98690.00
2023-06-29T02:49:50.060Z,98690.00
2023-06-29T02:52:37.550Z,98696.00
2023-06-29T02:55:25.150Z,98695.00
2023-06-29T02:58:12.685Z,98695.00
2023-06-29T03:01:00.303Z,98698.00
2023-06-29T03:03:47.898Z,98688.00
2023-06-29T03:06:35.392Z,98697.00
2023-06-29T03:09:22.984Z,98691.00
2023-06-29T03:12:11.288Z,98696.00
2023-06-29T03:14:58.809Z,98694.00
2023-06-29T03:17:46.365Z,98700.00
2023-06-29T03:20:33.935Z,98705.00
2023-06-29T03:23:21.416Z,98707.00
2023-06-29T03:26:08.939Z,98703.00
2023-06-29T03:28:56.448Z,98703.00
2023-06-29T03:31:43.909Z,98700.00
2023-06-29T03:34:31.430Z,98703.00
2023-06-29T03:37:19.413Z,98705.00
2023-06-29T03:40:08.130Z,98699.00
2023-06-29T03:42:55.664Z,98701.00
2023-06-29T03:45:43.624Z,98701.00
2023-06-29T03:48:31.894Z,98702.00
2023-06-29T03:51:19.647Z,98700.00
2023-06-29T03:54:07.121Z,98692.00
2023-06-29T03:56:56.126Z,98690.00
2023-06-29T03:59:43.705Z,98695.00
2023-06-29T04:02:31.250Z,98686.00
2023-06-29T04:05:18.839Z,98688.00
2023-06-29T04:08:06.523Z,98690.00
2023-06-29T04:10:54.078Z,98693.00
2023-06-29T04:13:41.591Z,98701.00
2023-06-29T04:16:29.408Z,98708.00
2023-06-29T04:19:17.237Z,98705.00
2023-06-29T04:22:05.117Z,98709.00
2023-06-29T04:24:52.636Z,98715.00
2023-06-29T04:27:40.146Z,98714.00
2023-06-29T04:30:27.762Z,98712.00
2023-06-29T04:33:17.049Z,98712.00
2023-06-29T04:36:04.999Z,98716.00
2023-06-29T04:38:52.595Z,98711.00
2023-06-29T04:41:42.514Z,98710.00
2023-06-29T04:44:33.696Z,98710.00
2023-06-29T04:47:21.219Z,98706.00
2023-06-29T04:50:09.867Z,98708.00
2023-06-29T04:52:59.658Z,98704.00
2023-06-29T04:55:47.635Z,98701.00
2023-06-29T04:58:35.333Z,98709.00
2023-06-29T05:01:23.093Z,98712.00
2023-06-29T05:04:10.605Z,98706.00
2023-06-29T05:06:58.178Z,98698.00
2023-06-29T05:09:45.686Z,98704.00
2023-06-29T05:12:33.166Z,98707.00
2023-06-29T05:15:20.788Z,98708.00
2023-06-29T05:18:08.389Z,98701.00
2023-06-29T05:20:56.000Z,98703.00
2023-06-29T05:23:43.513Z,98705.00
2023-06-29T05:26:30.988Z,98700.00
2023-06-29T05:29:18.459Z,98700.00
2023-06-29T05:32:07.281Z,98709.00
2023-06-29T05:34:54.768Z,98702.00
2023-06-29T05:37:42.498Z,98701.00
2023-06-29T05:40:30.494Z,98700.00
2023-06-29T05:43:18.029Z,98699.00
2023-06-29T05:46:05.566Z,98694.00
2023-06-29T05:48:53.110Z,98695.00
2023-06-29T05:51:40.655Z,98695.00
2023-06-29T05:54:28.250Z,98700.00
2023-06-29T05:57:17.049Z,98701.00
2023-06-29T06:00:12.339Z,98711.00
2023-06-29T06:02:59.916Z,98718.00
2023-06-29T06:05:47.436Z,98708.00
2023-06-29T06:08:34.959Z,98710.00
2023-06-29T06:11:22.441Z,98707.00
2023-06-29T06:14:09.925Z,98702.00
2023-06-29T06:16:57.478Z,98705.00
2023-06-29T06:19:45.529Z,98701.00
2023-06-29T06:22:32.973Z,98690.00
2023-06-29T06:25:21.320Z,98701.00
2023-06-29T06:28:08.820Z,98696.00
2023-06-29T06:30:56.418Z,98697.00
2023-06-29T06:33:43.943Z,98692.00
2023-06-29T06:36:31.796Z,98688.00
2023-06-29T06:39:19.964Z,98689.00
2023-06-29T06:42:07.616Z,98695.00
2023-06-29T06:44:57.116Z,98691.00
2023-06-29T06:47:44.734Z,98690.00
2023-06-29T06:50:32.247Z,98687.00
2023-06-29T06:53:19.810Z,98684.00
2023-06-29T06:56:07.877Z,98684.00
2023-06-29T06:58:55.462Z,98678.00
2023-06-29T07:01:42.998Z,98675.00
2023-06-29T07:04:30.579Z,98679.00
2023-06-29T07:07:18.197Z,98680.00
2023-06-29T07:10:06.410Z,98672.00
2023-06-29T07:12:53.891Z,98672.00
2023-06-29T07:15:41.409Z,98675.00
2023-06-29T07:18:32.152Z,98676.00
2023-06-29T07:21:21.210Z,98668.00
2023-06-29T07:24:11.965Z,98668.00
2023-06-29T07:26:59.619Z,98670.00
2023-06-29T07:29:47.790Z,98665.00
2023-06-29T07:32:36.084Z,98674.00
2023-06-29T07:35:23.628Z,98666.00
2023-06-29T07:38:13.687Z,98656.00
2023-06-29T07:41:02.770Z,98658.00
2023-06-29T07:43:55.626Z,98657.00
2023-06-29T07:46:43.127Z,98666.00
2023-06-29T07:49:30.804Z,98651.00
2023-06-29T07:52:18.701Z,98650.00
2023-06-29T07:55:06.517Z,98655.00
2023-06-29T08:00:44.831Z,98650.00
2023-06-29T08:03:44.026Z,98650.00
2023-06-29T08:06:51.309Z,98640.00
2023-06-29T08:09:39.796Z,98649.00
2023-06-29T08:12:27.289Z,98644.00
2023-06-29T08:15:14.843Z,98644.00
2023-06-29T08:18:02.394Z,98643.00
2023-06-29T08:20:50.165Z,98638.00
2023-06-29T08:23:37.735Z,98642.00
2023-06-29T08:26:26.263Z,98638.00
2023-06-29T08:29:13.771Z,98638.00
2023-06-29T08:32:02.366Z,98636.00
2023-06-29T08:34:49.894Z,98630.00
2023-06-29T08:37:37.774Z,98629.00
2023-06-29T08:40:27.145Z,98627.00
2023-06-29T08:43:17.171Z,98626.00
2023-06-29T08:46:04.996Z,98624.00
2023-06-29T08:48:52.601Z,98632.00
2023-06-29T08:51:44.728Z,98625.00
2023-06-29T08:54:33.656Z,98618.00
2023-06-29T08:57:21.945Z,98612.00
2023-06-29T09:00:10.834Z,98616.00
2023-06-29T09:02:58.675Z,98612.00
2023-06-29T09:05:49.433Z,98614.00
2023-06-29T09:08:38.853Z,98608.00
2023-06-29T09:11:26.431Z,98597.00
2023-06-29T09:14:14.105Z,98606.00
2023-06-29T09:17:03.159Z,98600.00
2023-06-29T09:19:56.890Z,98585.00
2023-06-29T09:22:49.638Z,98591.00
2023-06-29T09:25:40.980Z,98592.00
2023-06-29T09:28:28.597Z,98598.00
2023-06-29T09:31:16.166Z,98592.00
2023-06-29T09:34:33.089Z,98590.00
2023-06-29T09:37:20.550Z,98585.00
2023-06-29T09:40:13.432Z,98577.00
2023-06-29T09:43:04.722Z,98579.00
2023-06-29T09:46:05.391Z,98579.00
2023-06-29T09:51:44.047Z,98579.00
2023-06-29T09:54:38.313Z,98577.00
2023-06-29T09:57:28.405Z,98575.00
2023-06-29T10:00:16.349Z,98573.00
2023-06-29T10:03:04.153Z,98560.00
2023-06-29T10:05:57.445Z,98556.00
2023-06-29T10:08:54.986Z,98559.00
2023-06-29T10:11:49.547Z,98553.00
2023-06-29T10:14:39.886Z,98550.00
2023-06-29T10:17:38.929Z,98542.00
2023-06-29T10:20:32.120Z,98534.00
2023-06-29T10:23:24.622Z,98536.00
2023-06-29T10:26:16.648Z,98527.00
2023-06-29T10:29:04.771Z,98529.00
2023-06-29T10:31:59.294Z,98523.00
2023-06-29T10:35:10.336Z,98514.00
2023-06-29T10:37:58.896Z,98513.00
2023-06-29T10:40:50.546Z,98514.00
2023-06-29T10:44:02.448Z,98499.00
2023-06-29T10:46:50.960Z,98499.00
2023-06-29T10:49:38.563Z,98491.00
2023-06-29T10:52:26.055Z,98501.00
2023-06-29T10:55:20.307Z,98489.00
2023-06-29T10:58:20.887Z,98489.00
2023-06-29T11:01:08.571Z,98479.00
2023-06-29T11:03:56.365Z,98481.00
2023-06-29T11:06:43.945Z,98480.00
2023-06-29T11:09:31.737Z,98481.00
2023-06-29T11:12:19.520Z,98470.00
2023-06-29T11:15:20.173Z,98467.00
2023-06-29T11:18:10.656Z,98465.00
2023-06-29T11:21:02.976Z,98459.00
2023-06-29T11:23:52.105Z,98463.00
2023-06-29T11:26:39.694Z,98457.00
2023-06-29T11:29:29.450Z,98452.00
2023-06-29T11:32:17.446Z,98450.00
2023-06-29T11:35:09.479Z,98446.00
2023-06-29T11:38:02.187Z,98441.00
2023-06-29T11:40:49.738Z,98445.00
2023-06-29T11:43:37.390Z,98436.00
2023-06-29T11:46:25.012Z,98435.00
2023-06-29T11:49:12.579Z,98424.00
2023-06-29T11:52:00.148Z,98421.00
2023-06-29T11:54:48.361Z,98413.00
2023-06-29T11:57:40.352Z,98415.00
2023-06-29T12:00:31.811Z,98418.00
2023-06-29T12:03:20.205Z,98409.00
2023-06-29T12:06:07.990Z,98407.00
2023-06-29T12:08:55.647Z,98407.00
2023-06-29T12:11:43.146Z,98401.00
2023-06-29T12:14:34.854Z,98394.00
2023-06-29T12:20:25.490Z,98392.00
2023-06-29T12:23:15.635Z,98385.00
2023-06-29T12:26:04.176Z,98376.00
2023-06-29T12:28:51.712Z,98372.00
2023-06-29T12:31:39.590Z,98366.00
2023-06-29T12:34:30.102Z,98357.00
2023-06-29T12:37:17.603Z,98366.00
2023-06-29T12:40:06.950Z,98366.00
2023-06-29T12:42:55.644Z,98368.00
2023-06-29T12:45:43.219Z,98356.00
2023-06-29T12:48:30.744Z,98355.00
2023-06-29T12:51:18.983Z,98360.00
2023-06-29T12:54:06.389Z,98354.00
2023-06-29T12:56:54.031Z,98351.00
2023-06-29T12:59:42.852Z,98349.00
2023-06-29T13:02:31.366Z,98345.00
2023-06-29T13:05:19.106Z,98342.00
2023-06-29T13:08:06.914Z,98352.00
2023-06-29T13:10:54.472Z,98342.00
2023-06-29T13:13:42.272Z,98335.00
2023-06-29T13:16:32.599Z,98328.00
2023-06-29T13:19:22.723Z,98335.00
2023-06-29T13:22:10.869Z,98329.00
2023-06-29T13:24:58.569Z,98324.00
2023-06-29T13:27:46.847Z,98324.00
2023-06-29T13:30:34.317Z,98328.00
2023-06-29T13:33:21.984Z,98325.00
2023-06-29T13:36:09.709Z,98324.00
2023-06-29T13:38:57.340Z,98323.00
2023-06-29T13:41:45.581Z,98322.00
2023-06-29T13:44:33.155Z,98317.00
2023-06-29T13:47:23.530Z,98315.00
2023-06-29T13:50:11.648Z,98307.00
2023-06-29T13:52:59.122Z,98305.00
2023-06-29T13:55:47.417Z,98299.00
2023-06-29T13:58:35.194Z,98302.00
2023-06-29T14:01:22.782Z,98292.00
2023-06-29T14:04:12.357Z,98301.00
2023-06-29T14:07:00.708Z,98293.00
2023-06-29T14:09:48.223Z,98295.00
2023-06-29T14:12:35.733Z,98289.00
2023-06-29T14:15:23.358Z,98284.00
2023-06-29T14:18:11.087Z,98281.00
2023-06-29T14:20:58.679Z,98285.00
2023-06-29T14:23:46.680Z,98274.00
2023-06-29T14:26:34.188Z,98271.00
2023-06-29T14:29:21.744Z,98270.00
2023-06-29T14:32:09.445Z,98273.00
2023-06-29T14:34:56.953Z,98265.00
2023-06-29T14:37:44.442Z,98261.00
2023-06-29T14:40:32.097Z,98254.00
2023-06-29T14:43:20.311Z,98257.00
2023-06-29T14:46:07.839Z,98251.00
2023-06-29T14:48:55.357Z,98257.00
2023-06-29T14:51:43.022Z,98255.00
2023-06-29T14:54:30.476Z,98249.00
2023-06-29T14:57:17.966Z,98253.00
2023-06-29T15:00:06.599Z,98253.00
2023-06-29T15:02:54.242Z,98235.00
2023-06-29T15:05:41.866Z,98239.00
2023-06-29T15:08:29.374Z,98242.00
2023-06-29T15:11:16.923Z,98242.00
2023-06-29T15:14:04.579Z,98241.00
2023-06-29T15:16:52.954Z,98238.00
2023-06-29T15:19:40.458Z,98230.00
2023-06-29T15:22:28.026Z,98231.00
2023-06-29T15:25:15.720Z,98232.00
2023-06-29T15:28:03.312Z,98224.00
2023-06-29T15:30:53.870Z,98218.00
2023-06-29T15:33:42.364Z,98208.00
2023-06-29T15:36:29.942Z,98212.00
2023-06-29T15:39:17.821Z,98202.00
2023-06-29T15:42:05.943Z,98203.00
2023-06-29T15:44:53.775Z,98193.00
2023-06-29T15:47:41.729Z,98193.00
2023-06-29T15:50:29.287Z,98185.00
2023-06-29T15:53:16.774Z,98186.00
2023-06-29T15:56:04.583Z,98179.00
2023-06-29T15:58:52.142Z,98170.00
2023-06-29T16:01:39.714Z,98182.00
2023-06-29T16:04:27.157Z,98173.00
2023-06-29T16:07:14.748Z,98162.00
2023-06-29T16:10:02.483Z,98167.00
2023-06-29T16:12:49.989Z,98159.00
2023-06-29T16:15:37.555Z,98163.00
2023-06-29T16:18:25.034Z,98152.00
2023-06-29T16:21:13.553Z,98156.00
2023-06-29T16:24:01.048Z,98153.00
2023-06-29T16:26:49.907Z,98152.00
2023-06-29T16:29:37.536Z,98147.00
2023-06-29T16:32:25.228Z,98144.00
2023-06-29T16:35:14.429Z,98146.00
2023-06-29T16:38:04.133Z,98145.00
2023-06-29T16:40:52.734Z,98144.00
2023-06-29T16:43:40.684Z,98141.00
2023-06-29T16:46:28.350Z,98141.00
2023-06-29T16:49:16.373Z,98147.00
2023-06-29T16:52:04.234Z,98141.00
2023-06-29T16:54:51.755Z,98145.00
2023-06-29T16:57:39.399Z,98147.00
2023-06-29T17:00:27.184Z,98149.00
2023-06-29T17:03:15.116Z,98146.00
2023-06-29T17:06:03.046Z,98146.00
2023-06-29T17:08:52.528Z,98140.00
2023-06-29T17:11:40.250Z,98145.00
2023-06-29T17:14:27.760Z,98146.00
2023-06-29T17:17:15.990Z,98140.00
2023-06-29T17:20:04.147Z,98142.00
2023-06-29T17:22:52.125Z,98138.00
2023-06-29T17:25:51.328Z,98140.00
2023-06-29T17:28:38.864Z,98139.00
2023-06-29T17:31:27.079Z,98141.00
2023-06-29T17:34:14.591Z,98135.00
2023-06-29T17:37:03.331Z,98136.00
2023-06-29T17:39:50.878Z,98141.00
2023-06-29T17:42:38.449Z,98142.00
2023-06-29T17:45:27.855Z,98141.00
2023-06-29T17:48:15.474Z,98141.00
2023-06-29T17:51:23.370Z,98138.00
2023-06-29T17:54:10.913Z,98132.00
2023-06-29T17:56:58.410Z,98132.00
2023-06-29T17:59:46.080Z,98135.00
2023-06-29T18:02:33.847Z,98130.00
2023-06-29T18:05:21.550Z,98127.00
2023-06-29T18:08:09.077Z,98132.00
2023-06-29T18:10:56.559Z,98134.00
2023-06-29T18:13:44.905Z,98134.00
2023-06-29T18:16:32.508Z,98127.00
2023-06-29T18:19:20.576Z,98126.00
2023-06-29T18:22:08.820Z,98130.00
2023-06-29T18:24:56.497Z,98127.00
2023-06-29T18:27:44.168Z,98127.00
2023-06-29T18:30:31.724Z,98133.00
2023-06-29T18:33:19.308Z,98125.00
2023-06-29T18:36:07.026Z,98124.00
2023-06-29T18:38:54.562Z,98125.00
2023-06-29T18:41:42.026Z,98127.00
2023-06-29T18:44:29.591Z,98127.00
2023-06-29T18:47:17.214Z,98131.00
2023-06-29T18:50:07.327Z,98132.00
2023-06-29T18:52:58.458Z,98125.00
2023-06-29T18:55:46.354Z,98128.00
2023-06-29T18:58:34.116Z,98127.00
2023-06-29T19:01:21.849Z,98132.00
2023-06-29T19:04:09.616Z,98137.00
2023-06-29T19:06:57.640Z,98136.00
2023-06-29T19:09:45.546Z,98133.00
2023-06-29T19:12:33.115Z,98135.00
2023-06-29T19:15:20.872Z,98137.00
2023-06-29T19:18:20.300Z,98142.00
2023-06-29T19:21:07.904Z,98138.00
2023-06-29T19:23:55.570Z,98139.00
2023-06-29T19:26:43.080Z,98141.00
2023-06-29T19:29:30.983Z,98146.00
2023-06-29T19:32:18.544Z,98141.00
2023-06-29T19:35:06.871Z,98145.00
2023-06-29T19:37:55.033Z,98140.00
2023-06-29T19:40:42.607Z,98145.00
2023-06-29T19:43:31.417Z,98155.00
2023-06-29T19:46:19.191Z,98150.00
2023-06-29T19:49:06.700Z,98148.00
2023-06-29T19:51:58.488Z,98149.00
2023-06-29T19:54:47.707Z,98146.00
2023-06-29T19:57:35.199Z,98153.00
2023-06-29T20:00:22.814Z,98151.00
2023-06-29T20:03:10.763Z,98152.00
2023-06-29T20:05:58.490Z,98156.00
2023-06-29T20:08:46.107Z,98156.00
2023-06-29T20:11:33.705Z,98160.00
2023-06-29T20:14:21.188Z,98167.00
2023-06-29T20:17:09.023Z,98162.00
2023-06-29T20:19:56.601Z,98167.00
2023-06-29T20:22:44.152Z,98161.00
2023-06-29T20:25:31.620Z,98169.00
2023-06-29T20:28:19.119Z,98167.00
2023-06-29T20:31:06.699Z,98175.00
2023-06-29T20:33:54.200Z,98173.00
2023-06-29T20:36:41.717Z,98172.00
2023-06-29T20:39:29.249Z,98167.00
2023-06-29T20:42:16.719Z,98170.00
2023-06-29T20:45:06.128Z,98172.00
2023-06-29T20:47:53.696Z,98170.00
2023-06-29T20:50:43.078Z,98173.00
2023-06-29T20:53:30.567Z,98175.00
2023-06-29T20:56:18.110Z,98182.00
2023-06-29T20:59:05.602Z,98179.00
2023-06-29T21:01:53.197Z,98180.00
2023-06-29T21:04:40.792Z,98180.00
2023-06-29T21:07:28.300Z,98175.00
2023-06-29T21:10:15.844Z,98175.00
2023-06-29T21:13:03.850Z,98176.00
2023-06-29T21:15:51.556Z,98166.00
2023-06-29T21:18:39.833Z,98167.00
2023-06-29T21:21:27.861Z,98164.00
2023-06-29T21:24:15.660Z,98155.00
2023-06-29T21:27:03.629Z,98156.00
2023-06-29T21:29:51.640Z,98157.00
2023-06-29T21:32:39.397Z,98160.00
2023-06-29T21:35:27.260Z,98164.00
2023-06-29T21:38:15.152Z,98165.00
2023-06-29T21:41:02.639Z,98166.00
2023-06-29T21:43:50.267Z,98172.00
2023-06-29T21:46:37.777Z,98167.00
2023-06-29T21:49:25.463Z,98174.00
2023-06-29T21:52:13.015Z,98165.00
2023-06-29T21:55:00.597Z,98175.00
2023-06-29T21:57:49.211Z,98168.00
2023-06-29T22:00:36.757Z,98175.00
2023-06-29T22:03:24.413Z,98168.00
2023-06-29T22:06:12.200Z,98174.00
2023-06-29T22:09:00.544Z,98174.00
2023-06-29T22:11:48.100Z,98176.00
2023-06-29T22:14:35.577Z,98176.00
2023-06-29T22:17:23.984Z,98178.00
2023-06-29T22:20:17.016Z,98182.00
2023-06-29T22:23:04.629Z,98180.00
2023-06-29T22:25:52.135Z,98185.00
2023-06-29T22:28:39.651Z,98183.00
2023-06-29T22:31:27.785Z,98177.00
2023-06-29T22:34:16.154Z,98185.00
2023-06-29T22:37:04.472Z,98185.00
2023-06-29T22:39:52.052Z,98182.00
2023-06-29T22:42:39.596Z,98177.00
2023-06-29T22:45:27.434Z,98179.00
2023-06-29T22:48:14.967Z,98175.00
2023-06-29T22:51:02.501Z,98182.00
2023-06-29T22:53:50.107Z,98185.00
2023-06-29T22:56:37.555Z,98179.00
2023-06-29T22:59:25.194Z,98184.00
2023-06-29T23:02:12.708Z,98190.00
2023-06-29T23:05:00.230Z,98184.00
2023-06-29T23:07:47.825Z,98183.00
2023-06-29T23:10:37.699Z,98188.00
2023-06-29T23:13:27.069Z,98190.00
2023-06-29T23:16:14.588Z,98194.00
2023-06-29T23:19:02.385Z,98198.00
2023-06-29T23:21:49.965Z,98197.00
2023-06-29T23:24:37.402Z,98201.00
2023-06-29T23:27:24.883Z,98204.00
2023-06-29T23:30:15.530Z,98205.00
2023-06-29T23:33:03.142Z,98197.00
2023-06-29T23:35:50.845Z,98198.00
2023-06-29T23:38:38.351Z,98191.00
2023-06-29T23:41:29.546Z,98195.00
2023-06-29T23:44:17.287Z,98192.00
2023-06-29T23:47:06.924Z,98192.00
2023-06-29T23:49:54.469Z,98191.00
2023-06-29T23:52:43.682Z,98185.00
2023-06-29T23:55:31.344Z,98194.00
2023-06-29T23:58:19.142Z,98198.00
